sensor_id;sensor_type;location;lat;lon;timestamp;temperature;humidity
19544;DHT22;9917;51.256;7.152;2023-08-12T00:00:00;21.70;99.90
19544;DHT22;9917;51.256;7.152;2023-08-12T00:02:26;21.60;99.90
19544;DHT22;9917;51.256;7.152;2023-08-12T00:04:53;21.60;99.90
19544;DHT22;9917;51.256;7.152;2023-08-12T00:07:18;21.60;99.90
19544;DHT22;9917;51.256;7.152;2023-08-12T00:09:45;21.60;99.90
19544;DHT22;9917;51.256;7.152;2023-08-12T00:12:11;21.60;99.90
19544;DHT22;9917;51.256;7.152;2023-08-12T00:17:03;21.50;99.90
19544;DHT22;9917;51.256;7.152;2023-08-12T00:19:28;21.40;99.90
19544;DHT22;9917;51.256;7.152;2023-08-12T00:21:55;21.40;99.90
19544;DHT22;9917;51.256;7.152;2023-08-12T00:24:21;21.30;99.90
19544;DHT22;9917;51.256;7.152;2023-08-12T00:31:39;21.40;99.90
19544;DHT22;9917;51.256;7.152;2023-08-12T00:34:04;21.40;99.90
19544;DHT22;9917;51.256;7.152;2023-08-12T00:36:30;21.50;99.90
19544;DHT22;9917;51.256;7.152;2023-08-12T00:38:57;21.40;99.90
19544;DHT22;9917;51.256;7.152;2023-08-12T00:41:23;21.40;99.90
19544;DHT22;9917;51.256;7.152;2023-08-12T00:43:48;21.40;99.90
19544;DHT22;9917;51.256;7.152;2023-08-12T00:48:40;21.40;99.90
19544;DHT22;9917;51.256;7.152;2023-08-12T00:51:06;21.50;99.90
19544;DHT22;9917;51.256;7.152;2023-08-12T00:53:32;21.50;99.90
19544;DHT22;9917;51.256;7.152;2023-08-12T00:55:59;21.50;99.90
19544;DHT22;9917;51.256;7.152;2023-08-12T00:58:24;21.40;99.90
19544;DHT22;9917;51.256;7.152;2023-08-12T01:00:50;21.40;99.90
19544;DHT22;9917;51.256;7.152;2023-08-12T01:03:16;21.40;99.90
19544;DHT22;9917;51.256;7.152;2023-08-12T01:05:42;21.20;99.90
19544;DHT22;9917;51.256;7.152;2023-08-12T01:08:07;21.20;99.90
19544;DHT22;9917;51.256;7.152;2023-08-12T01:10:35;21.00;99.90
19544;DHT22;9917;51.256;7.152;2023-08-12T01:13:11;21.00;99.90
19544;DHT22;9917;51.256;7.152;2023-08-12T01:15:40;20.90;99.90
19544;DHT22;9917;51.256;7.152;2023-08-12T01:18:07;20.70;99.90
19544;DHT22;9917;51.256;7.152;2023-08-12T01:20:33;20.70;99.90
19544;DHT22;9917;51.256;7.152;2023-08-12T01:23:12;20.70;99.90
19544;DHT22;9917;51.256;7.152;2023-08-12T01:25:38;20.60;99.90
19544;DHT22;9917;51.256;7.152;2023-08-12T01:28:05;18.70;99.90
19544;DHT22;9917;51.256;7.152;2023-08-12T01:30:32;20.60;99.90
19544;DHT22;9917;51.256;7.152;2023-08-12T01:33:03;20.50;99.90
19544;DHT22;9917;51.256;7.152;2023-08-12T01:35:36;20.50;99.90
19544;DHT22;9917;51.256;7.152;2023-08-12T01:38:04;20.50;99.90
19544;DHT22;9917;51.256;7.152;2023-08-12T01:40:32;20.60;99.90
19544;DHT22;9917;51.256;7.152;2023-08-12T01:42:59;20.50;99.90
19544;DHT22;9917;51.256;7.152;2023-08-12T01:45:24;20.60;99.90
19544;DHT22;9917;51.256;7.152;2023-08-12T01:47:50;20.60;99.90
19544;DHT22;9917;51.256;7.152;2023-08-12T01:50:16;19.60;99.90
19544;DHT22;9917;51.256;7.152;2023-08-12T01:52:42;20.60;99.90
19544;DHT22;9917;51.256;7.152;2023-08-12T01:55:08;20.50;99.90
19544;DHT22;9917;51.256;7.152;2023-08-12T01:57:35;20.50;99.90
19544;DHT22;9917;51.256;7.152;2023-08-12T02:00:02;20.50;99.90
19544;DHT22;9917;51.256;7.152;2023-08-12T02:02:28;15.80;99.90
19544;DHT22;9917;51.256;7.152;2023-08-12T02:04:54;20.60;99.90
19544;DHT22;9917;51.256;7.152;2023-08-12T02:07:19;20.60;99.90
19544;DHT22;9917;51.256;7.152;2023-08-12T02:12:11;20.50;99.90
19544;DHT22;9917;51.256;7.152;2023-08-12T02:14:38;20.50;99.90
19544;DHT22;9917;51.256;7.152;2023-08-12T02:17:04;20.50;99.90
19544;DHT22;9917;51.256;7.152;2023-08-12T02:19:30;20.50;99.90
19544;DHT22;9917;51.256;7.152;2023-08-12T02:21:56;20.60;99.90
19544;DHT22;9917;51.256;7.152;2023-08-12T02:24:21;20.60;99.90
19544;DHT22;9917;51.256;7.152;2023-08-12T02:26:47;20.50;99.90
19544;DHT22;9917;51.256;7.152;2023-08-12T02:29:13;20.50;99.90
19544;DHT22;9917;51.256;7.152;2023-08-12T02:31:40;20.50;99.90
19544;DHT22;9917;51.256;7.152;2023-08-12T02:34:05;20.50;99.90
19544;DHT22;9917;51.256;7.152;2023-08-12T02:36:31;20.50;99.90
19544;DHT22;9917;51.256;7.152;2023-08-12T02:38:57;20.50;99.90
19544;DHT22;9917;51.256;7.152;2023-08-12T02:41:23;20.50;99.90
19544;DHT22;9917;51.256;7.152;2023-08-12T02:43:48;20.60;99.90
19544;DHT22;9917;51.256;7.152;2023-08-12T02:46:14;20.60;99.90
19544;DHT22;9917;51.256;7.152;2023-08-12T02:48:41;20.50;99.90
19544;DHT22;9917;51.256;7.152;2023-08-12T02:51:07;20.60;99.90
19544;DHT22;9917;51.256;7.152;2023-08-12T02:53:32;20.60;99.90
19544;DHT22;9917;51.256;7.152;2023-08-12T02:55:58;20.60;99.90
19544;DHT22;9917;51.256;7.152;2023-08-12T02:58:24;20.60;99.90
19544;DHT22;9917;51.256;7.152;2023-08-12T03:00:50;20.60;99.90
19544;DHT22;9917;51.256;7.152;2023-08-12T03:05:46;20.70;99.90
19544;DHT22;9917;51.256;7.152;2023-08-12T03:08:11;20.80;99.90
19544;DHT22;9917;51.256;7.152;2023-08-12T03:10:39;20.80;99.90
19544;DHT22;9917;51.256;7.152;2023-08-12T03:13:04;20.80;99.90
19544;DHT22;9917;51.256;7.152;2023-08-12T03:15:30;20.80;99.90
19544;DHT22;9917;51.256;7.152;2023-08-12T03:17:56;20.80;99.90
19544;DHT22;9917;51.256;7.152;2023-08-12T03:20:22;20.80;99.90
19544;DHT22;9917;51.256;7.152;2023-08-12T03:22:49;20.80;99.90
19544;DHT22;9917;51.256;7.152;2023-08-12T03:25:15;20.90;99.90
19544;DHT22;9917;51.256;7.152;2023-08-12T03:30:08;20.90;99.90
19544;DHT22;9917;51.256;7.152;2023-08-12T03:32:33;21.00;99.90
19544;DHT22;9917;51.256;7.152;2023-08-12T03:34:59;21.00;99.90
19544;DHT22;9917;51.256;7.152;2023-08-12T03:37:25;20.90;99.90
19544;DHT22;9917;51.256;7.152;2023-08-12T03:39:52;21.00;99.90
19544;DHT22;9917;51.256;7.152;2023-08-12T03:42:18;21.00;99.90
19544;DHT22;9917;51.256;7.152;2023-08-12T03:44:44;21.00;99.90
19544;DHT22;9917;51.256;7.152;2023-08-12T03:47:10;21.00;99.90
19544;DHT22;9917;51.256;7.152;2023-08-12T03:49:36;21.00;99.90
19544;DHT22;9917;51.256;7.152;2023-08-12T03:52:02;20.90;99.90
19544;DHT22;9917;51.256;7.152;2023-08-12T03:54:27;20.90;99.90
19544;DHT22;9917;51.256;7.152;2023-08-12T03:56:56;20.80;99.90
19544;DHT22;9917;51.256;7.152;2023-08-12T03:59:22;20.70;99.90
19544;DHT22;9917;51.256;7.152;2023-08-12T04:04:14;20.70;99.90
19544;DHT22;9917;51.256;7.152;2023-08-12T04:09:09;20.70;99.90
19544;DHT22;9917;51.256;7.152;2023-08-12T04:14:02;20.70;99.90
19544;DHT22;9917;51.256;7.152;2023-08-12T04:31:07;20.80;99.90
19544;DHT22;9917;51.256;7.152;2023-08-12T04:33:33;20.80;99.90
19544;DHT22;9917;51.256;7.152;2023-08-12T04:35:59;20.90;99.90
19544;DHT22;9917;51.256;7.152;2023-08-12T04:38:25;20.90;99.90
19544;DHT22;9917;51.256;7.152;2023-08-12T04:40:52;20.90;99.90
19544;DHT22;9917;51.256;7.152;2023-08-12T04:43:18;20.90;99.90
19544;DHT22;9917;51.256;7.152;2023-08-12T04:45:45;21.00;99.90
19544;DHT22;9917;51.256;7.152;2023-08-12T04:48:12;21.00;99.90
19544;DHT22;9917;51.256;7.152;2023-08-12T04:50:38;21.10;99.90
19544;DHT22;9917;51.256;7.152;2023-08-12T04:53:04;21.00;99.90
19544;DHT22;9917;51.256;7.152;2023-08-12T04:55:30;21.10;99.90
19544;DHT22;9917;51.256;7.152;2023-08-12T04:57:55;21.10;99.90
19544;DHT22;9917;51.256;7.152;2023-08-12T05:00:22;21.10;99.90
19544;DHT22;9917;51.256;7.152;2023-08-12T05:02:47;21.10;99.90
19544;DHT22;9917;51.256;7.152;2023-08-12T05:05:15;21.20;99.90
19544;DHT22;9917;51.256;7.152;2023-08-12T05:07:41;21.20;99.90
19544;DHT22;9917;51.256;7.152;2023-08-12T05:10:07;21.30;99.90
19544;DHT22;9917;51.256;7.152;2023-08-12T05:12:33;21.40;99.90
19544;DHT22;9917;51.256;7.152;2023-08-12T05:14:58;21.50;99.90
19544;DHT22;9917;51.256;7.152;2023-08-12T05:17:24;21.50;99.90
19544;DHT22;9917;51.256;7.152;2023-08-12T05:19:50;21.60;99.90
19544;DHT22;9917;51.256;7.152;2023-08-12T05:22:17;21.70;99.90
19544;DHT22;9917;51.256;7.152;2023-08-12T05:24:42;21.80;99.90
19544;DHT22;9917;51.256;7.152;2023-08-12T05:27:08;22.00;99.90
19544;DHT22;9917;51.256;7.152;2023-08-12T05:29:34;22.00;99.90
19544;DHT22;9917;51.256;7.152;2023-08-12T05:32:00;22.20;99.90
19544;DHT22;9917;51.256;7.152;2023-08-12T05:34:25;22.40;99.90
19544;DHT22;9917;51.256;7.152;2023-08-12T05:36:51;22.50;99.90
19544;DHT22;9917;51.256;7.152;2023-08-12T05:39:18;22.60;99.90
19544;DHT22;9917;51.256;7.152;2023-08-12T05:41:44;22.60;99.90
19544;DHT22;9917;51.256;7.152;2023-08-12T05:46:35;22.60;99.90
19544;DHT22;9917;51.256;7.152;2023-08-12T05:49:01;22.60;99.90
19544;DHT22;9917;51.256;7.152;2023-08-12T05:51:27;22.50;99.90
19544;DHT22;9917;51.256;7.152;2023-08-12T05:53:52;22.20;99.90
19544;DHT22;9917;51.256;7.152;2023-08-12T05:56:19;22.20;99.90
19544;DHT22;9917;51.256;7.152;2023-08-12T05:58:45;22.20;99.90
19544;DHT22;9917;51.256;7.152;2023-08-12T06:03:37;21.80;99.90
19544;DHT22;9917;51.256;7.152;2023-08-12T06:06:03;21.70;99.90
19544;DHT22;9917;51.256;7.152;2023-08-12T06:08:28;21.60;99.90
19544;DHT22;9917;51.256;7.152;2023-08-12T06:10:54;21.50;99.90
19544;DHT22;9917;51.256;7.152;2023-08-12T06:13:21;21.30;99.90
19544;DHT22;9917;51.256;7.152;2023-08-12T06:15:47;21.30;99.90
19544;DHT22;9917;51.256;7.152;2023-08-12T06:18:12;21.20;99.90
19544;DHT22;9917;51.256;7.152;2023-08-12T06:23:04;21.00;99.90
19544;DHT22;9917;51.256;7.152;2023-08-12T06:25:30;21.00;99.90
19544;DHT22;9917;51.256;7.152;2023-08-12T06:27:55;20.90;99.90
19544;DHT22;9917;51.256;7.152;2023-08-12T06:30:22;20.70;99.90
19544;DHT22;9917;51.256;7.152;2023-08-12T06:32:48;20.70;99.90
19544;DHT22;9917;51.256;7.152;2023-08-12T06:35:14;20.70;99.90
19544;DHT22;9917;51.256;7.152;2023-08-12T06:37:39;20.70;99.90
19544;DHT22;9917;51.256;7.152;2023-08-12T06:40:07;20.60;99.90
19544;DHT22;9917;51.256;7.152;2023-08-12T06:42:32;20.60;99.90
19544;DHT22;9917;51.256;7.152;2023-08-12T06:44:59;20.30;99.90
19544;DHT22;9917;51.256;7.152;2023-08-12T06:47:26;20.40;99.90
19544;DHT22;9917;51.256;7.152;2023-08-12T06:49:52;20.20;99.90
19544;DHT22;9917;51.256;7.152;2023-08-12T06:52:18;20.00;99.90
19544;DHT22;9917;51.256;7.152;2023-08-12T06:54:43;19.80;99.90
19544;DHT22;9917;51.256;7.152;2023-08-12T06:57:09;19.80;99.90
19544;DHT22;9917;51.256;7.152;2023-08-12T06:59:34;19.70;99.90
19544;DHT22;9917;51.256;7.152;2023-08-12T07:02:00;19.70;99.90
19544;DHT22;9917;51.256;7.152;2023-08-12T07:04:27;19.50;99.90
19544;DHT22;9917;51.256;7.152;2023-08-12T07:06:53;19.50;99.90
19544;DHT22;9917;51.256;7.152;2023-08-12T07:09:19;19.50;99.90
19544;DHT22;9917;51.256;7.152;2023-08-12T07:11:44;19.70;99.90
19544;DHT22;9917;51.256;7.152;2023-08-12T07:14:10;19.60;99.90
19544;DHT22;9917;51.256;7.152;2023-08-12T07:16:36;19.50;99.90
19544;DHT22;9917;51.256;7.152;2023-08-12T07:21:29;19.80;99.90
19544;DHT22;9917;51.256;7.152;2023-08-12T07:23:54;19.80;99.90
19544;DHT22;9917;51.256;7.152;2023-08-12T07:26:20;19.80;99.90
19544;DHT22;9917;51.256;7.152;2023-08-12T07:28:46;20.00;99.90
19544;DHT22;9917;51.256;7.152;2023-08-12T07:31:11;20.10;99.90
19544;DHT22;9917;51.256;7.152;2023-08-12T07:33:37;20.30;99.90
19544;DHT22;9917;51.256;7.152;2023-08-12T07:36:03;20.50;99.90
19544;DHT22;9917;51.256;7.152;2023-08-12T07:38:30;20.40;99.90
19544;DHT22;9917;51.256;7.152;2023-08-12T07:40:56;20.40;99.90
19544;DHT22;9917;51.256;7.152;2023-08-12T07:43:22;20.40;99.90
19544;DHT22;9917;51.256;7.152;2023-08-12T07:45:51;20.40;99.90
19544;DHT22;9917;51.256;7.152;2023-08-12T07:48:16;20.60;99.90
19544;DHT22;9917;51.256;7.152;2023-08-12T07:50:42;20.60;99.90
19544;DHT22;9917;51.256;7.152;2023-08-12T07:53:08;20.80;99.90
19544;DHT22;9917;51.256;7.152;2023-08-12T07:55:35;20.70;99.90
19544;DHT22;9917;51.256;7.152;2023-08-12T07:58:02;20.90;99.90
19544;DHT22;9917;51.256;7.152;2023-08-12T08:00:28;21.20;99.90
19544;DHT22;9917;51.256;7.152;2023-08-12T08:02:54;21.30;99.90
19544;DHT22;9917;51.256;7.152;2023-08-12T08:05:22;21.60;99.90
19544;DHT22;9917;51.256;7.152;2023-08-12T08:07:48;21.80;99.90
19544;DHT22;9917;51.256;7.152;2023-08-12T08:10:14;22.00;99.90
19544;DHT22;9917;51.256;7.152;2023-08-12T08:12:41;22.20;99.90
19544;DHT22;9917;51.256;7.152;2023-08-12T08:15:07;22.30;99.90
19544;DHT22;9917;51.256;7.152;2023-08-12T08:17:33;22.30;99.90
19544;DHT22;9917;51.256;7.152;2023-08-12T08:19:59;22.20;99.90
19544;DHT22;9917;51.256;7.152;2023-08-12T08:22:25;22.20;99.90
19544;DHT22;9917;51.256;7.152;2023-08-12T08:24:51;22.20;99.90
19544;DHT22;9917;51.256;7.152;2023-08-12T08:27:17;22.20;99.90
19544;DHT22;9917;51.256;7.152;2023-08-12T08:29:44;21.90;99.90
19544;DHT22;9917;51.256;7.152;2023-08-12T08:32:10;21.80;99.90
19544;DHT22;9917;51.256;7.152;2023-08-12T08:34:36;21.80;99.90
19544;DHT22;9917;51.256;7.152;2023-08-12T08:37:03;21.90;99.90
19544;DHT22;9917;51.256;7.152;2023-08-12T08:39:29;22.20;99.90
19544;DHT22;9917;51.256;7.152;2023-08-12T08:41:55;22.10;99.90
19544;DHT22;9917;51.256;7.152;2023-08-12T08:44:22;22.40;99.90
19544;DHT22;9917;51.256;7.152;2023-08-12T08:46:50;22.60;99.90
19544;DHT22;9917;51.256;7.152;2023-08-12T08:49:17;23.00;99.90
19544;DHT22;9917;51.256;7.152;2023-08-12T08:51:44;22.90;99.90
19544;DHT22;9917;51.256;7.152;2023-08-12T08:54:12;22.80;99.90
19544;DHT22;9917;51.256;7.152;2023-08-12T08:56:38;22.50;99.90
19544;DHT22;9917;51.256;7.152;2023-08-12T08:59:04;22.50;99.90
19544;DHT22;9917;51.256;7.152;2023-08-12T09:01:31;22.10;99.90
19544;DHT22;9917;51.256;7.152;2023-08-12T09:03:58;22.20;99.90
19544;DHT22;9917;51.256;7.152;2023-08-12T09:06:26;22.40;99.90
19544;DHT22;9917;51.256;7.152;2023-08-12T09:08:52;22.50;99.90
19544;DHT22;9917;51.256;7.152;2023-08-12T09:11:19;22.70;99.90
19544;DHT22;9917;51.256;7.152;2023-08-12T09:13:45;22.70;99.90
19544;DHT22;9917;51.256;7.152;2023-08-12T09:16:11;22.80;99.90
19544;DHT22;9917;51.256;7.152;2023-08-12T09:18:37;22.90;99.90
19544;DHT22;9917;51.256;7.152;2023-08-12T09:21:04;23.00;99.90
19544;DHT22;9917;51.256;7.152;2023-08-12T09:23:35;22.80;99.90
19544;DHT22;9917;51.256;7.152;2023-08-12T09:26:02;23.00;99.90
19544;DHT22;9917;51.256;7.152;2023-08-12T09:28:28;23.10;99.90
19544;DHT22;9917;51.256;7.152;2023-08-12T09:30:54;24.50;99.90
19544;DHT22;9917;51.256;7.152;2023-08-12T09:33:24;26.00;99.90
19544;DHT22;9917;51.256;7.152;2023-08-12T09:35:51;26.30;99.90
19544;DHT22;9917;51.256;7.152;2023-08-12T09:38:18;26.40;99.90
19544;DHT22;9917;51.256;7.152;2023-08-12T09:40:46;26.10;99.90
19544;DHT22;9917;51.256;7.152;2023-08-12T09:43:12;25.80;99.90
19544;DHT22;9917;51.256;7.152;2023-08-12T09:45:38;25.50;99.90
19544;DHT22;9917;51.256;7.152;2023-08-12T09:48:04;25.50;99.90
19544;DHT22;9917;51.256;7.152;2023-08-12T09:50:30;25.60;99.90
19544;DHT22;9917;51.256;7.152;2023-08-12T09:52:56;25.70;99.90
19544;DHT22;9917;51.256;7.152;2023-08-12T09:55:24;25.80;99.90
19544;DHT22;9917;51.256;7.152;2023-08-12T09:57:52;25.60;99.90
19544;DHT22;9917;51.256;7.152;2023-08-12T10:00:18;25.30;99.90
19544;DHT22;9917;51.256;7.152;2023-08-12T10:02:45;25.30;99.90
19544;DHT22;9917;51.256;7.152;2023-08-12T10:05:13;25.20;99.90
19544;DHT22;9917;51.256;7.152;2023-08-12T10:07:43;24.80;99.90
19544;DHT22;9917;51.256;7.152;2023-08-12T10:10:09;24.40;99.90
19544;DHT22;9917;51.256;7.152;2023-08-12T10:12:37;24.40;99.90
19544;DHT22;9917;51.256;7.152;2023-08-12T10:15:05;24.60;99.90
19544;DHT22;9917;51.256;7.152;2023-08-12T10:17:31;24.60;99.90
19544;DHT22;9917;51.256;7.152;2023-08-12T10:19:58;24.50;99.90
19544;DHT22;9917;51.256;7.152;2023-08-12T10:22:24;24.40;99.90
19544;DHT22;9917;51.256;7.152;2023-08-12T10:24:51;24.90;99.90
19544;DHT22;9917;51.256;7.152;2023-08-12T10:27:17;24.40;99.90
19544;DHT22;9917;51.256;7.152;2023-08-12T10:29:46;24.60;99.90
19544;DHT22;9917;51.256;7.152;2023-08-12T10:32:13;24.60;99.90
19544;DHT22;9917;51.256;7.152;2023-08-12T10:34:39;24.20;99.90
19544;DHT22;9917;51.256;7.152;2023-08-12T10:37:05;24.20;99.90
19544;DHT22;9917;51.256;7.152;2023-08-12T10:39:32;24.20;99.90
19544;DHT22;9917;51.256;7.152;2023-08-12T10:41:58;25.10;99.90
19544;DHT22;9917;51.256;7.152;2023-08-12T10:44:26;25.40;99.90
19544;DHT22;9917;51.256;7.152;2023-08-12T10:46:54;25.60;99.90
19544;DHT22;9917;51.256;7.152;2023-08-12T10:49:21;26.70;99.90
19544;DHT22;9917;51.256;7.152;2023-08-12T10:51:48;27.70;99.90
19544;DHT22;9917;51.256;7.152;2023-08-12T10:54:16;28.20;99.90
19544;DHT22;9917;51.256;7.152;2023-08-12T10:57:04;27.90;99.90
19544;DHT22;9917;51.256;7.152;2023-08-12T10:59:52;27.80;99.90
19544;DHT22;9917;51.256;7.152;2023-08-12T11:02:21;27.00;99.90
19544;DHT22;9917;51.256;7.152;2023-08-12T11:04:52;26.00;99.90
19544;DHT22;9917;51.256;7.152;2023-08-12T11:07:18;23.80;99.90
19544;DHT22;9917;51.256;7.152;2023-08-12T11:09:46;25.00;99.90
19544;DHT22;9917;51.256;7.152;2023-08-12T11:12:18;24.90;99.90
19544;DHT22;9917;51.256;7.152;2023-08-12T11:14:47;24.80;99.90
19544;DHT22;9917;51.256;7.152;2023-08-12T11:17:14;24.80;99.90
19544;DHT22;9917;51.256;7.152;2023-08-12T11:19:41;24.90;99.90
19544;DHT22;9917;51.256;7.152;2023-08-12T11:22:07;24.80;99.90
19544;DHT22;9917;51.256;7.152;2023-08-12T11:27:00;24.30;99.90
19544;DHT22;9917;51.256;7.152;2023-08-12T11:29:26;24.30;99.90
19544;DHT22;9917;51.256;7.152;2023-08-12T11:34:17;24.50;99.90
19544;DHT22;9917;51.256;7.152;2023-08-12T11:36:44;24.30;99.90
19544;DHT22;9917;51.256;7.152;2023-08-12T11:39:10;24.20;99.90
19544;DHT22;9917;51.256;7.152;2023-08-12T11:41:36;23.70;99.90
19544;DHT22;9917;51.256;7.152;2023-08-12T11:44:02;23.90;99.90
19544;DHT22;9917;51.256;7.152;2023-08-12T11:46:28;23.80;99.90
19544;DHT22;9917;51.256;7.152;2023-08-12T11:48:53;23.50;99.90
19544;DHT22;9917;51.256;7.152;2023-08-12T11:51:19;23.00;99.90
19544;DHT22;9917;51.256;7.152;2023-08-12T11:53:46;22.40;99.90
19544;DHT22;9917;51.256;7.152;2023-08-12T11:56:12;22.40;99.90
19544;DHT22;9917;51.256;7.152;2023-08-12T11:58:38;22.30;99.90
19544;DHT22;9917;51.256;7.152;2023-08-12T12:01:04;22.30;99.90
19544;DHT22;9917;51.256;7.152;2023-08-12T12:03:30;22.20;99.90
19544;DHT22;9917;51.256;7.152;2023-08-12T12:05:56;22.20;99.90
19544;DHT22;9917;51.256;7.152;2023-08-12T12:08:21;22.40;99.90
19544;DHT22;9917;51.256;7.152;2023-08-12T12:10:48;22.50;99.90
19544;DHT22;9917;51.256;7.152;2023-08-12T12:13:14;22.60;99.90
19544;DHT22;9917;51.256;7.152;2023-08-12T12:15:42;22.90;99.90
19544;DHT22;9917;51.256;7.152;2023-08-12T12:18:10;22.90;99.90
19544;DHT22;9917;51.256;7.152;2023-08-12T12:20:39;23.00;99.90
19544;DHT22;9917;51.256;7.152;2023-08-12T12:23:07;23.00;99.90
19544;DHT22;9917;51.256;7.152;2023-08-12T12:25:33;23.10;99.90
19544;DHT22;9917;51.256;7.152;2023-08-12T12:28:02;24.20;99.90
19544;DHT22;9917;51.256;7.152;2023-08-12T12:30:27;26.50;99.90
19544;DHT22;9917;51.256;7.152;2023-08-12T12:32:53;28.60;99.90
19544;DHT22;9917;51.256;7.152;2023-08-12T12:35:19;30.60;99.90
19544;DHT22;9917;51.256;7.152;2023-08-12T12:37:45;32.80;99.90
19544;DHT22;9917;51.256;7.152;2023-08-12T12:40:11;34.20;99.90
19544;DHT22;9917;51.256;7.152;2023-08-12T12:42:37;33.90;99.90
19544;DHT22;9917;51.256;7.152;2023-08-12T12:45:05;34.50;99.90
19544;DHT22;9917;51.256;7.152;2023-08-12T12:47:30;34.40;99.90
19544;DHT22;9917;51.256;7.152;2023-08-12T12:49:56;33.30;99.90
19544;DHT22;9917;51.256;7.152;2023-08-12T12:52:22;32.20;99.90
19544;DHT22;9917;51.256;7.152;2023-08-12T12:54:48;32.10;99.90
19544;DHT22;9917;51.256;7.152;2023-08-12T12:57:13;31.30;99.90
19544;DHT22;9917;51.256;7.152;2023-08-12T12:59:39;30.60;99.90
19544;DHT22;9917;51.256;7.152;2023-08-12T13:02:06;30.10;99.90
19544;DHT22;9917;51.256;7.152;2023-08-12T13:04:32;29.30;99.90
19544;DHT22;9917;51.256;7.152;2023-08-12T13:06:57;28.40;99.90
19544;DHT22;9917;51.256;7.152;2023-08-12T13:09:23;27.70;99.90
19544;DHT22;9917;51.256;7.152;2023-08-12T13:11:49;27.10;99.90
19544;DHT22;9917;51.256;7.152;2023-08-12T13:14:15;26.40;99.90
19544;DHT22;9917;51.256;7.152;2023-08-12T13:16:42;25.70;99.90
19544;DHT22;9917;51.256;7.152;2023-08-12T13:19:09;25.10;99.90
19544;DHT22;9917;51.256;7.152;2023-08-12T13:21:35;23.70;99.90
19544;DHT22;9917;51.256;7.152;2023-08-12T13:24:00;23.10;99.90
19544;DHT22;9917;51.256;7.152;2023-08-12T13:26:26;23.00;99.90
19544;DHT22;9917;51.256;7.152;2023-08-12T13:28:53;22.10;99.90
19544;DHT22;9917;51.256;7.152;2023-08-12T13:31:19;22.10;99.90
19544;DHT22;9917;51.256;7.152;2023-08-12T13:33:44;21.80;99.90
19544;DHT22;9917;51.256;7.152;2023-08-12T13:36:11;21.80;99.90
19544;DHT22;9917;51.256;7.152;2023-08-12T13:38:37;21.80;99.90
19544;DHT22;9917;51.256;7.152;2023-08-12T13:41:03;21.60;99.90
19544;DHT22;9917;51.256;7.152;2023-08-12T13:43:29;21.60;99.90
19544;DHT22;9917;51.256;7.152;2023-08-12T13:45:54;20.60;99.90
19544;DHT22;9917;51.256;7.152;2023-08-12T13:48:20;21.80;99.90
19544;DHT22;9917;51.256;7.152;2023-08-12T13:50:46;21.90;99.90
19544;DHT22;9917;51.256;7.152;2023-08-12T13:53:13;21.80;99.90
19544;DHT22;9917;51.256;7.152;2023-08-12T13:55:38;21.80;99.90
19544;DHT22;9917;51.256;7.152;2023-08-12T14:02:56;22.10;99.90
19544;DHT22;9917;51.256;7.152;2023-08-12T14:10:15;22.50;99.90
19544;DHT22;9917;51.256;7.152;2023-08-12T14:27:18;24.30;99.90
19544;DHT22;9917;51.256;7.152;2023-08-12T14:32:10;26.40;99.90
19544;DHT22;9917;51.256;7.152;2023-08-12T14:34:36;27.90;99.90
19544;DHT22;9917;51.256;7.152;2023-08-12T14:37:02;29.30;99.90
19544;DHT22;9917;51.256;7.152;2023-08-12T14:44:22;29.50;99.90
19544;DHT22;9917;51.256;7.152;2023-08-12T14:54:06;29.20;99.90
19544;DHT22;9917;51.256;7.152;2023-08-12T15:01:25;29.10;99.90
19544;DHT22;9917;51.256;7.152;2023-08-12T15:18:28;29.70;99.90
19544;DHT22;9917;51.256;7.152;2023-08-12T15:33:05;28.60;99.90
19544;DHT22;9917;51.256;7.152;2023-08-12T15:35:32;28.10;99.90
19544;DHT22;9917;51.256;7.152;2023-08-12T15:50:08;26.20;99.90
19544;DHT22;9917;51.256;7.152;2023-08-12T15:52:35;26.10;99.90
19544;DHT22;9917;51.256;7.152;2023-08-12T16:09:39;24.80;99.90
19544;DHT22;9917;51.256;7.152;2023-08-12T16:12:09;24.80;99.90
19544;DHT22;9917;51.256;7.152;2023-08-12T16:24:19;25.10;99.90
19544;DHT22;9917;51.256;7.152;2023-08-12T16:26:46;25.30;99.90
19544;DHT22;9917;51.256;7.152;2023-08-12T16:29:12;25.40;99.90
19544;DHT22;9917;51.256;7.152;2023-08-12T16:31:38;25.30;99.90
19544;DHT22;9917;51.256;7.152;2023-08-12T16:34:03;25.40;99.90
19544;DHT22;9917;51.256;7.152;2023-08-12T16:36:29;25.40;99.90
19544;DHT22;9917;51.256;7.152;2023-08-12T16:43:48;24.90;99.90
19544;DHT22;9917;51.256;7.152;2023-08-12T16:48:40;24.40;99.90
19544;DHT22;9917;51.256;7.152;2023-08-12T17:00:51;24.00;99.90
19544;DHT22;9917;51.256;7.152;2023-08-12T17:10:37;24.00;99.90
19544;DHT22;9917;51.256;7.152;2023-08-12T17:13:03;23.50;99.90
19544;DHT22;9917;51.256;7.152;2023-08-12T17:17:56;23.70;99.90
19544;DHT22;9917;51.256;7.152;2023-08-12T17:30:06;23.50;99.90
19544;DHT22;9917;51.256;7.152;2023-08-12T17:34:59;23.40;99.90
19544;DHT22;9917;51.256;7.152;2023-08-12T17:37:25;23.10;99.90
19544;DHT22;9917;51.256;7.152;2023-08-12T17:52:02;23.40;99.90
19544;DHT22;9917;51.256;7.152;2023-08-12T18:09:06;22.60;99.90
19544;DHT22;9917;51.256;7.152;2023-08-12T18:21:15;22.10;99.90
19544;DHT22;9917;51.256;7.152;2023-08-12T18:26:08;22.20;99.90
19544;DHT22;9917;51.256;7.152;2023-08-12T18:40:44;21.20;99.90
19544;DHT22;9917;51.256;7.152;2023-08-12T18:43:11;21.70;99.90
19544;DHT22;9917;51.256;7.152;2023-08-12T18:48:03;21.40;99.90
19544;DHT22;9917;51.256;7.152;2023-08-12T19:00:15;21.40;99.90
19544;DHT22;9917;51.256;7.152;2023-08-12T19:05:07;21.50;99.90
19544;DHT22;9917;51.256;7.152;2023-08-12T19:17:18;19.90;99.90
19544;DHT22;9917;51.256;7.152;2023-08-12T19:19:44;20.20;99.90
19544;DHT22;9917;51.256;7.152;2023-08-12T19:34:21;19.70;99.90
19544;DHT22;9917;51.256;7.152;2023-08-12T19:44:05;17.70;99.90
19544;DHT22;9917;51.256;7.152;2023-08-12T19:51:24;19.20;99.90
19544;DHT22;9917;51.256;7.152;2023-08-12T20:08:27;18.90;99.90
19544;DHT22;9917;51.256;7.152;2023-08-12T20:10:53;18.90;99.90
19544;DHT22;9917;51.256;7.152;2023-08-12T20:20:37;18.40;99.90
19544;DHT22;9917;51.256;7.152;2023-08-12T20:25:31;18.60;99.90
19544;DHT22;9917;51.256;7.152;2023-08-12T20:30:23;19.20;99.90
19544;DHT22;9917;51.256;7.152;2023-08-12T20:33:04;19.20;99.90
19544;DHT22;9917;51.256;7.152;2023-08-12T20:35:30;18.70;99.90
19544;DHT22;9917;51.256;7.152;2023-08-12T20:42:49;18.60;99.90
19544;DHT22;9917;51.256;7.152;2023-08-12T20:45:15;18.80;99.90
19544;DHT22;9917;51.256;7.152;2023-08-12T20:50:07;18.40;99.90
19544;DHT22;9917;51.256;7.152;2023-08-12T20:57:25;18.80;99.90
19544;DHT22;9917;51.256;7.152;2023-08-12T20:59:52;18.20;99.90
19544;DHT22;9917;51.256;7.152;2023-08-12T21:12:02;18.00;99.90
19544;DHT22;9917;51.256;7.152;2023-08-12T21:14:28;18.50;99.90
19544;DHT22;9917;51.256;7.152;2023-08-12T21:16:55;18.40;99.90
19544;DHT22;9917;51.256;7.152;2023-08-12T21:33:58;18.00;99.90
19544;DHT22;9917;51.256;7.152;2023-08-12T21:38:50;18.30;99.90
19544;DHT22;9917;51.256;7.152;2023-08-12T21:43:42;17.90;99.90
19544;DHT22;9917;51.256;7.152;2023-08-12T21:51:01;17.70;99.90